createdAt,value
2018-11-23T00:01:54.412Z,5.54
2018-11-23T00:04:23.307Z,5.63
2018-11-23T00:06:52.221Z,5.61
2018-11-23T00:09:21.708Z,5.66
2018-11-23T00:11:50.523Z,5.76
2018-11-23T00:14:19.405Z,5.74
2018-11-23T00:16:48.271Z,5.71
2018-11-23T00:19:17.100Z,5.70
2018-11-23T00:21:45.842Z,5.70
2018-11-23T00:24:14.677Z,5.68
2018-11-23T00:26:43.482Z,5.66
2018-11-23T00:29:12.308Z,5.61
2018-11-23T00:31:41.072Z,5.55
2018-11-23T00:34:09.832Z,5.50
2018-11-23T00:36:38.651Z,5.55
2018-11-23T00:39:08.224Z,5.61
2018-11-23T00:41:37.400Z,5.61
2018-11-23T00:44:06.781Z,5.64
2018-11-23T00:46:35.619Z,5.65
2018-11-23T00:49:04.438Z,5.46
2018-11-23T00:51:33.242Z,5.35
2018-11-23T00:54:02.105Z,5.32
2018-11-23T00:56:30.906Z,5.33
2018-11-23T00:58:59.733Z,5.35
2018-11-23T01:01:32.042Z,5.39
2018-11-23T01:04:00.857Z,5.44
2018-11-23T01:06:29.777Z,5.48
2018-11-23T01:08:58.570Z,5.49
2018-11-23T01:11:27.764Z,5.48
2018-11-23T01:13:56.605Z,5.49
2018-11-23T01:16:25.455Z,5.51
2018-11-23T01:18:54.226Z,5.55
2018-11-23T01:21:27.813Z,5.57
2018-11-23T01:23:56.619Z,5.45
2018-11-23T01:26:25.490Z,5.44
2018-11-23T01:28:54.913Z,5.51
2018-11-23T01:31:23.775Z,5.54
2018-11-23T01:33:52.574Z,5.51
2018-11-23T01:36:21.438Z,5.52
2018-11-23T01:38:56.792Z,5.54
2018-11-23T01:41:25.584Z,5.58
2018-11-23T01:43:54.348Z,5.57
2018-11-23T01:46:23.142Z,5.52
2018-11-23T01:48:51.933Z,5.51
2018-11-23T01:51:20.676Z,5.53
2018-11-23T01:53:49.438Z,5.39
2018-11-23T01:56:18.347Z,5.42
2018-11-23T01:58:47.194Z,5.49
2018-11-23T02:01:16.009Z,5.51
2018-11-23T02:03:44.807Z,5.52
2018-11-23T02:06:13.602Z,5.52
2018-11-23T02:08:42.382Z,5.56
2018-11-23T02:11:11.168Z,5.57
2018-11-23T02:13:39.970Z,5.60
2018-11-23T02:16:08.744Z,5.71
2018-11-23T02:18:37.581Z,5.78
2018-11-23T02:21:06.686Z,5.80
2018-11-23T02:23:35.528Z,5.81
2018-11-23T02:26:04.455Z,5.85
2018-11-23T02:28:33.307Z,5.86
2018-11-23T02:31:08.485Z,5.83
2018-11-23T02:33:39.653Z,5.82
2018-11-23T02:36:09.432Z,5.87
2018-11-23T02:38:38.352Z,5.90
2018-11-23T02:41:07.081Z,5.94
2018-11-23T02:43:35.854Z,5.97
2018-11-23T02:46:05.005Z,5.96
2018-11-23T02:48:33.769Z,6.03
2018-11-23T02:51:02.591Z,5.99
2018-11-23T02:53:31.349Z,5.96
2018-11-23T02:56:00.127Z,5.92
2018-11-23T02:58:28.927Z,5.95
2018-11-23T03:00:57.738Z,5.94
2018-11-23T03:03:26.592Z,5.91
2018-11-23T03:05:55.386Z,5.92
2018-11-23T03:08:24.148Z,5.87
2018-11-23T03:10:53.008Z,5.88
2018-11-23T03:13:21.934Z,5.94
2018-11-23T03:15:50.760Z,5.97
2018-11-23T03:18:19.617Z,5.93
2018-11-23T03:20:48.576Z,5.89
2018-11-23T03:23:17.414Z,5.90
2018-11-23T03:25:46.262Z,5.92
2018-11-23T03:28:15.059Z,5.93
2018-11-23T03:30:44.275Z,5.93
2018-11-23T03:33:13.061Z,5.92
2018-11-23T03:35:42.075Z,5.82
2018-11-23T03:38:11.701Z,5.84
2018-11-23T03:40:40.561Z,5.87
2018-11-23T03:43:09.403Z,5.91
2018-11-23T03:45:39.364Z,5.83
2018-11-23T03:48:08.619Z,5.82
2018-11-23T03:50:37.479Z,5.83
2018-11-23T03:53:06.351Z,5.85
2018-11-23T03:55:35.171Z,5.86
2018-11-23T03:58:04.059Z,5.85
2018-11-23T04:00:32.802Z,5.91
2018-11-23T04:03:01.570Z,5.83
2018-11-23T04:05:30.533Z,5.86
2018-11-23T04:07:59.449Z,5.87
2018-11-23T04:10:28.293Z,5.92
2018-11-23T04:12:57.080Z,5.95
2018-11-23T04:15:25.964Z,5.97
2018-11-23T04:17:54.827Z,6.01
2018-11-23T04:20:23.620Z,6.02
2018-11-23T04:22:52.436Z,6.01
2018-11-23T04:25:21.232Z,5.94
2018-11-23T04:27:50.650Z,5.90
2018-11-23T04:30:20.416Z,5.98
2018-11-23T04:32:49.419Z,6.07
2018-11-23T04:35:22.018Z,6.06
2018-11-23T04:37:53.619Z,6.09
2018-11-23T04:40:22.524Z,6.15
2018-11-23T04:42:51.369Z,6.16
2018-11-23T04:45:20.403Z,6.15
2018-11-23T04:47:49.215Z,6.16
2018-11-23T04:50:18.177Z,6.08
2018-11-23T04:52:47.021Z,6.01
2018-11-23T04:55:15.879Z,6.01
2018-11-23T04:57:45.005Z,6.02
2018-11-23T05:00:16.089Z,6.01
2018-11-23T05:02:45.501Z,6.01
2018-11-23T05:05:14.685Z,6.08
2018-11-23T05:07:45.262Z,6.09
2018-11-23T05:10:15.135Z,6.08
2018-11-23T05:12:45.667Z,6.08
2018-11-23T05:15:16.010Z,6.10
2018-11-23T05:17:44.996Z,6.08
2018-11-23T05:20:14.495Z,6.08
2018-11-23T05:22:43.612Z,6.12
2018-11-23T05:25:13.365Z,6.04
2018-11-23T05:27:42.211Z,5.94
2018-11-23T05:30:14.514Z,5.79
2018-11-23T05:32:43.946Z,5.84
2018-11-23T05:35:14.158Z,5.84
2018-11-23T05:37:43.036Z,5.88
2018-11-23T05:40:14.428Z,5.84
2018-11-23T05:42:44.145Z,5.82
2018-11-23T05:45:18.261Z,5.85
2018-11-23T05:47:47.318Z,5.93
2018-11-23T05:50:17.998Z,5.92
2018-11-23T05:52:46.981Z,5.88
2018-11-23T05:55:15.764Z,5.86
2018-11-23T05:57:44.654Z,5.87
2018-11-23T06:00:17.990Z,5.89
2018-11-23T06:02:48.099Z,5.91
2018-11-23T06:05:17.077Z,5.99
2018-11-23T06:07:45.906Z,5.98
2018-11-23T06:10:16.380Z,6.05
2018-11-23T06:12:45.173Z,6.06
2018-11-23T06:15:16.368Z,6.15
2018-11-23T06:17:45.641Z,6.23
2018-11-23T06:20:16.193Z,6.23
2018-11-23T06:22:46.070Z,6.30
2018-11-23T06:25:48.286Z,6.25
2018-11-23T06:28:17.131Z,6.23
2018-11-23T06:30:46.024Z,6.30
2018-11-23T06:33:32.329Z,6.22
2018-11-23T06:36:01.202Z,6.18
2018-11-23T06:38:30.358Z,6.17
2018-11-23T06:40:59.444Z,6.19
2018-11-23T06:43:28.359Z,6.21
2018-11-23T06:45:58.108Z,6.28
2018-11-23T06:48:27.026Z,6.28
2018-11-23T06:50:56.235Z,6.26
2018-11-23T06:53:25.229Z,6.25
2018-11-23T06:55:54.248Z,6.28
2018-11-23T06:58:23.312Z,6.34
2018-11-23T07:00:52.145Z,6.43
2018-11-23T07:03:20.957Z,6.48
2018-11-23T07:05:49.804Z,6.55
2018-11-23T07:08:18.619Z,6.60
2018-11-23T07:10:47.536Z,6.74
2018-11-23T07:13:16.413Z,6.75
2018-11-23T07:15:45.610Z,6.83
2018-11-23T07:18:14.422Z,6.91
2018-11-23T07:20:43.280Z,6.88
2018-11-23T07:23:12.099Z,6.88
2018-11-23T07:25:40.844Z,6.89
2018-11-23T07:28:15.468Z,6.90
2018-11-23T07:30:38.646Z,6.89
2018-11-23T07:33:07.519Z,6.86
2018-11-23T07:35:36.373Z,6.88
2018-11-23T07:38:05.549Z,6.95
2018-11-23T07:40:46.855Z,6.96
2018-11-23T07:43:15.748Z,6.96
2018-11-23T07:45:44.615Z,7.04
2018-11-23T07:48:13.489Z,7.04
2018-11-23T07:50:42.327Z,7.04
2018-11-23T07:53:11.509Z,7.03
2018-11-23T07:55:40.343Z,7.09
2018-11-23T07:58:10.005Z,7.17
2018-11-23T08:00:38.858Z,7.22
2018-11-23T08:03:07.657Z,7.29
2018-11-23T08:05:36.510Z,7.27
2018-11-23T08:08:06.384Z,7.20
2018-11-23T08:10:34.344Z,7.21
2018-11-23T08:13:03.207Z,7.20
2018-11-23T08:15:32.026Z,7.13
2018-11-23T08:18:00.852Z,7.10
2018-11-23T08:20:29.707Z,7.11
2018-11-23T08:22:58.551Z,7.11
2018-11-23T08:25:27.505Z,7.03
2018-11-23T08:27:57.227Z,7.04
2018-11-23T08:30:28.352Z,7.13
2018-11-23T08:32:57.534Z,7.18
2018-11-23T08:35:26.367Z,7.33
2018-11-23T08:37:55.155Z,7.33
2018-11-23T08:40:25.374Z,7.31
2018-11-23T08:42:54.733Z,7.32
2018-11-23T08:45:24.854Z,7.36
2018-11-23T08:47:53.712Z,7.47
2018-11-23T08:50:24.720Z,7.56
2018-11-23T08:52:53.577Z,7.52
2018-11-23T08:55:22.681Z,7.56
2018-11-23T08:57:51.561Z,7.62
2018-11-23T09:00:28.064Z,7.59
2018-11-23T09:02:58.584Z,7.63
2018-11-23T09:05:27.492Z,7.68
2018-11-23T09:07:57.110Z,7.75
2018-11-23T09:10:27.600Z,7.85
2018-11-23T09:12:58.002Z,7.88
2018-11-23T09:15:26.880Z,7.86
2018-11-23T09:17:55.738Z,7.86
2018-11-23T09:20:24.646Z,7.97
2018-11-23T09:22:53.465Z,8.07
2018-11-23T09:25:23.337Z,8.08
2018-11-23T09:27:52.197Z,8.07
2018-11-23T09:30:23.447Z,8.10
2018-11-23T09:32:53.123Z,8.17
2018-11-23T09:35:21.955Z,7.99
2018-11-23T09:37:51.288Z,8.01
2018-11-23T09:40:21.724Z,8.11
2018-11-23T09:42:50.870Z,8.17
2018-11-23T09:45:22.038Z,8.16
2018-11-23T09:47:52.269Z,8.21
2018-11-23T09:50:22.225Z,8.28
2018-11-23T09:52:52.302Z,8.17
2018-11-23T09:55:21.810Z,8.10
2018-11-23T09:57:50.640Z,8.25
2018-11-23T10:00:21.541Z,8.41
2018-11-23T10:02:51.527Z,8.49
2018-11-23T10:05:22.125Z,8.47
2018-11-23T10:07:52.409Z,8.49
2018-11-23T10:10:21.956Z,8.59
2018-11-23T10:12:51.149Z,8.60
2018-11-23T10:15:20.689Z,8.70
2018-11-23T10:17:49.573Z,8.68
2018-11-23T10:20:20.792Z,8.70
2018-11-23T10:22:49.626Z,8.73
2018-11-23T10:25:21.807Z,8.77
2018-11-23T10:27:50.620Z,8.79
2018-11-23T10:30:22.255Z,8.79
2018-11-23T10:32:52.271Z,8.71
2018-11-23T10:35:23.941Z,8.74
2018-11-23T10:37:54.581Z,8.93
2018-11-23T10:40:24.684Z,8.97
2018-11-23T10:42:53.507Z,9.02
2018-11-23T10:45:24.887Z,9.06
2018-11-23T10:47:54.381Z,9.04
2018-11-23T10:50:24.507Z,9.05
2018-11-23T10:52:53.351Z,9.10
2018-11-23T10:55:23.553Z,9.16
2018-11-23T10:57:52.956Z,9.17
2018-11-23T11:00:27.094Z,9.15
2018-11-23T11:03:01.355Z,9.12
2018-11-23T11:05:35.388Z,9.14
2018-11-23T11:08:04.989Z,9.14
2018-11-23T11:10:33.785Z,9.10
2018-11-23T11:13:02.664Z,9.13
2018-11-23T11:15:31.617Z,9.13
2018-11-23T11:18:00.379Z,9.12
2018-11-23T11:20:29.176Z,9.19
2018-11-23T11:22:57.943Z,9.22
2018-11-23T11:25:26.798Z,9.22
2018-11-23T11:27:55.574Z,9.23
2018-11-23T11:30:24.427Z,9.26
2018-11-23T11:32:53.235Z,9.29
2018-11-23T11:35:22.024Z,9.24
2018-11-23T11:37:50.875Z,9.29
2018-11-23T11:40:20.733Z,9.34
2018-11-23T11:42:49.497Z,9.39
2018-11-23T11:45:19.209Z,9.33
2018-11-23T11:47:48.499Z,9.20
2018-11-23T11:50:17.394Z,9.24
2018-11-23T11:52:47.710Z,9.20
2018-11-23T11:55:17.946Z,9.24
2018-11-23T11:57:47.505Z,9.22
2018-11-23T12:00:19.801Z,9.13
2018-11-23T12:02:48.920Z,9.16
2018-11-23T12:05:18.350Z,9.24
2018-11-23T12:07:47.196Z,9.24
2018-11-23T12:10:22.248Z,9.15
2018-11-23T12:12:51.693Z,9.12
2018-11-23T12:15:20.519Z,9.02
2018-11-23T12:17:49.362Z,9.05
2018-11-23T12:20:20.680Z,9.17
2018-11-23T12:22:49.694Z,9.25
2018-11-23T12:25:19.216Z,9.31
2018-11-23T12:27:48.049Z,9.33
2018-11-23T12:30:18.268Z,9.35
2018-11-23T12:32:48.317Z,9.45
2018-11-23T12:35:18.008Z,9.40
2018-11-23T12:37:46.922Z,9.45
2018-11-23T12:40:17.318Z,9.47
2018-11-23T12:42:46.767Z,9.47
2018-11-23T12:45:17.366Z,9.51
2018-11-23T12:47:46.311Z,9.50
2018-11-23T12:50:17.293Z,9.44
2018-11-23T12:52:46.283Z,9.45
2018-11-23T12:55:15.616Z,9.45
2018-11-23T12:57:44.577Z,9.49
2018-11-23T13:00:29.705Z,9.47
2018-11-23T13:03:00.076Z,9.50
2018-11-23T13:05:29.792Z,9.53
2018-11-23T13:07:59.927Z,9.52
2018-11-23T13:10:29.126Z,9.55
2018-11-23T13:12:58.579Z,9.55
2018-11-23T13:15:27.568Z,9.57
2018-11-23T13:17:56.928Z,9.61
2018-11-23T13:20:25.779Z,9.56
2018-11-23T13:22:54.658Z,9.54
2018-11-23T13:25:25.081Z,9.52
2018-11-23T13:27:53.973Z,9.46
2018-11-23T13:30:24.360Z,9.27
2018-11-23T13:32:53.393Z,9.35
2018-11-23T13:35:22.616Z,9.41
2018-11-23T13:37:51.458Z,9.36
2018-11-23T13:40:22.479Z,9.13
2018-11-23T13:42:51.947Z,8.97
2018-11-23T13:45:22.159Z,8.86
2018-11-23T13:47:51.019Z,8.84
2018-11-23T13:50:21.115Z,8.81
2018-11-23T13:52:50.936Z,8.76
2018-11-23T13:55:19.773Z,8.83
2018-11-23T13:57:48.599Z,8.92
2018-11-23T14:00:20.430Z,8.95
2018-11-23T14:02:49.391Z,8.94
2018-11-23T14:05:20.385Z,8.96
2018-11-23T14:07:50.526Z,8.83
2018-11-23T14:10:21.154Z,8.67
2018-11-23T14:12:50.386Z,8.63
2018-11-23T14:15:20.748Z,8.73
2018-11-23T14:17:50.588Z,8.65
2018-11-23T14:20:20.090Z,8.69
2018-11-23T14:22:49.316Z,8.71
2018-11-23T14:25:20.891Z,8.62
2018-11-23T14:27:50.899Z,8.64
2018-11-23T14:30:21.584Z,8.71
2018-11-23T14:32:50.654Z,8.77
2018-11-23T14:35:22.712Z,8.75
2018-11-23T14:37:52.253Z,8.79
2018-11-23T14:40:21.125Z,8.73
2018-11-23T14:42:51.163Z,8.78
2018-11-23T14:45:25.868Z,8.80
2018-11-23T14:47:56.049Z,8.82
2018-11-23T14:50:27.569Z,8.80
2018-11-23T14:52:57.122Z,8.77
2018-11-23T14:55:26.886Z,8.79
2018-11-23T14:57:56.597Z,8.79
2018-11-23T15:00:28.828Z,8.81
2018-11-23T15:02:59.162Z,8.81
2018-11-23T15:05:28.047Z,8.78
2018-11-23T15:07:56.934Z,8.65
2018-11-23T15:10:27.127Z,8.64
2018-11-23T15:12:57.358Z,8.64
2018-11-23T15:15:27.657Z,8.67
2018-11-23T15:17:57.160Z,8.68
2018-11-23T15:20:30.773Z,8.71
2018-11-23T15:23:02.030Z,8.70
2018-11-23T15:25:36.261Z,8.74
2018-11-23T15:30:49.869Z,8.77
2018-11-23T15:33:19.285Z,8.75
2018-11-23T15:35:48.122Z,8.82
2018-11-23T15:38:18.543Z,8.81
2018-11-23T15:40:47.601Z,8.78
2018-11-23T15:43:18.299Z,8.78
2018-11-23T15:45:47.190Z,8.78
2018-11-23T15:48:22.341Z,8.73
2018-11-23T15:50:51.135Z,8.77
2018-11-23T15:53:19.925Z,8.77
2018-11-23T15:55:48.783Z,8.72
2018-11-23T15:58:18.459Z,8.71
2018-11-23T16:00:48.577Z,8.73
2018-11-23T16:03:17.877Z,8.73
2018-11-23T16:05:46.697Z,8.71
2018-11-23T16:08:18.340Z,8.73
2018-11-23T16:10:47.561Z,8.79
2018-11-23T16:13:16.394Z,8.78
2018-11-23T16:15:45.287Z,8.78
2018-11-23T16:18:14.345Z,8.79
2018-11-23T16:20:44.800Z,8.79
2018-11-23T16:23:18.094Z,8.78
2018-11-23T16:25:48.027Z,8.68
2018-11-23T16:28:16.930Z,8.57
2018-11-23T16:30:47.227Z,8.58
2018-11-23T16:33:18.878Z,8.62
2018-11-23T16:35:47.714Z,8.62
2018-11-23T16:38:18.320Z,8.57
2018-11-23T16:40:50.922Z,8.50
2018-11-23T16:43:19.814Z,8.65
2018-11-23T16:45:48.929Z,8.63
2018-11-23T16:48:18.629Z,8.61
2018-11-23T16:50:47.554Z,8.65
2018-11-23T16:53:16.431Z,8.66
2018-11-23T16:55:45.291Z,8.56
2018-11-23T16:58:14.616Z,8.61
2018-11-23T17:00:44.882Z,8.68
2018-11-23T17:03:15.116Z,8.68
2018-11-23T17:05:46.383Z,8.71
2018-11-23T17:08:15.356Z,8.69
2018-11-23T17:10:44.291Z,8.72
2018-11-23T17:13:13.084Z,8.57
2018-11-23T17:15:41.903Z,8.54
2018-11-23T17:18:11.859Z,8.57
2018-11-23T17:20:41.300Z,8.60
2018-11-23T17:23:11.129Z,8.62
2018-11-23T17:25:39.966Z,8.66
2018-11-23T17:28:10.976Z,8.58
2018-11-23T17:33:07.930Z,8.66
2018-11-23T17:35:36.818Z,8.69
2018-11-23T17:38:06.210Z,8.72
2018-11-23T17:40:36.741Z,8.71
2018-11-23T17:43:06.159Z,8.71
2018-11-23T17:45:35.171Z,8.70
2018-11-23T17:48:04.029Z,8.64
2018-11-23T17:50:34.189Z,8.63
2018-11-23T17:53:02.996Z,8.62
2018-11-23T17:55:31.829Z,8.62
2018-11-23T17:58:00.681Z,8.64
2018-11-23T18:00:38.505Z,8.67
2018-11-23T18:03:01.906Z,8.68
2018-11-23T18:05:31.634Z,8.64
2018-11-23T18:08:01.126Z,8.69
2018-11-23T18:10:31.276Z,8.75
2018-11-23T18:13:06.695Z,8.80
2018-11-23T18:15:36.012Z,8.79
2018-11-23T18:18:06.456Z,8.81
2018-11-23T18:20:35.593Z,8.82
2018-11-23T18:23:05.502Z,8.80
2018-11-23T18:25:36.101Z,8.83
2018-11-23T18:28:04.966Z,8.86
2018-11-23T18:30:34.869Z,8.80
2018-11-23T18:33:05.456Z,8.78
2018-11-23T18:35:34.297Z,8.72
2018-11-23T18:38:03.129Z,8.64
2018-11-23T18:40:37.131Z,8.59
2018-11-23T18:43:00.911Z,8.62
2018-11-23T18:45:29.762Z,8.64
2018-11-23T18:47:58.570Z,8.63
2018-11-23T18:50:27.336Z,8.57
2018-11-23T18:52:56.123Z,8.57
2018-11-23T18:55:25.016Z,8.51
2018-11-23T18:57:53.875Z,8.46
2018-11-23T19:00:23.023Z,8.39
2018-11-23T19:02:51.829Z,8.38
2018-11-23T19:05:22.966Z,8.40
2018-11-23T19:07:51.717Z,8.39
2018-11-23T19:10:20.622Z,8.42
2018-11-23T19:12:49.481Z,8.42
2018-11-23T19:15:25.348Z,8.40
2018-11-23T19:17:48.105Z,8.38
2018-11-23T19:20:20.272Z,8.37
2018-11-23T19:22:51.331Z,8.40
2018-11-23T19:25:20.188Z,8.40
2018-11-23T19:27:49.059Z,8.41
2018-11-23T19:30:27.716Z,8.43
2018-11-23T19:32:49.008Z,8.44
2018-11-23T19:35:17.971Z,8.49
2018-11-23T19:37:46.912Z,8.51
2018-11-23T19:40:16.728Z,8.49
2018-11-23T19:42:45.835Z,8.52
2018-11-23T19:45:15.727Z,8.56
2018-11-23T19:47:44.709Z,8.63
2018-11-23T19:50:17.141Z,8.55
2018-11-23T19:52:46.127Z,8.44
2018-11-23T19:55:16.331Z,8.37
2018-11-23T19:57:45.127Z,8.39
2018-11-23T20:00:23.150Z,8.38
2018-11-23T20:02:52.095Z,8.35
2018-11-23T20:05:21.076Z,8.40
2018-11-23T20:07:51.524Z,8.37
2018-11-23T20:10:21.721Z,8.32
2018-11-23T20:12:51.964Z,8.35
2018-11-23T20:15:20.981Z,8.39
2018-11-23T20:17:49.788Z,8.37
2018-11-23T20:20:18.673Z,8.33
2018-11-23T20:22:48.476Z,8.34
2018-11-23T20:25:18.612Z,8.36
2018-11-23T20:27:48.457Z,8.36
2018-11-23T20:30:18.195Z,8.36
2018-11-23T20:32:47.413Z,8.36
2018-11-23T20:35:17.337Z,8.33
2018-11-23T20:37:46.178Z,8.25
2018-11-23T20:40:16.078Z,8.23
2018-11-23T20:42:45.103Z,8.22
2018-11-23T20:45:14.542Z,8.22
2018-11-23T20:47:43.405Z,8.21
2018-11-23T20:50:13.988Z,8.25
2018-11-23T20:52:42.784Z,8.28
2018-11-23T20:55:14.503Z,8.23
2018-11-23T20:57:43.331Z,8.18
2018-11-23T21:00:15.856Z,8.15
2018-11-23T21:02:45.195Z,8.18
2018-11-23T21:05:15.198Z,8.19
2018-11-23T21:07:44.001Z,8.19
2018-11-23T21:10:20.080Z,8.12
2018-11-23T21:12:43.951Z,8.05
2018-11-23T21:15:23.379Z,7.95
2018-11-23T21:17:52.276Z,7.86
2018-11-23T21:20:21.175Z,7.83
2018-11-23T21:22:50.026Z,7.80
2018-11-23T21:25:18.817Z,7.78
2018-11-23T21:27:47.619Z,7.77
2018-11-23T21:30:21.245Z,7.72
2018-11-23T21:32:50.446Z,7.70
2018-11-23T21:35:19.832Z,7.60
2018-11-23T21:37:49.114Z,7.51
2018-11-23T21:40:18.333Z,7.46
2018-11-23T21:42:47.260Z,7.32
2018-11-23T21:45:17.004Z,7.20
2018-11-23T21:47:45.870Z,7.19
2018-11-23T21:50:16.701Z,7.09
2018-11-23T21:52:45.585Z,7.10
2018-11-23T21:55:16.546Z,7.10
2018-11-23T21:57:45.745Z,7.14
2018-11-23T22:00:15.952Z,7.17
2018-11-23T22:02:45.267Z,7.17
2018-11-23T22:05:14.127Z,7.09
2018-11-23T22:07:42.984Z,7.02
2018-11-23T22:10:19.263Z,7.02
2018-11-23T22:12:48.157Z,7.05
2018-11-23T22:15:19.303Z,7.04
2018-11-23T22:17:48.599Z,6.90
2018-11-23T22:20:18.507Z,6.78
2018-11-23T22:22:47.337Z,6.61
2018-11-23T22:25:17.551Z,6.52
2018-11-23T22:27:46.418Z,6.51
2018-11-23T22:30:17.569Z,6.47
2018-11-23T22:32:46.448Z,6.43
2018-11-23T22:35:15.255Z,6.38
2018-11-23T22:37:44.538Z,6.27
2018-11-23T22:40:14.900Z,6.26
2018-11-23T22:42:46.483Z,6.24
2018-11-23T22:45:16.051Z,6.27
2018-11-23T22:47:44.986Z,6.25
2018-11-23T22:50:16.045Z,6.31
2018-11-23T22:52:44.856Z,6.28
2018-11-23T22:55:15.161Z,6.38
2018-11-23T22:57:43.995Z,6.38
2018-11-23T23:00:20.276Z,6.40
2018-11-23T23:02:49.745Z,6.32
2018-11-23T23:05:19.594Z,6.33
2018-11-23T23:07:48.386Z,6.32
2018-11-23T23:10:17.225Z,6.45
2018-11-23T23:12:46.032Z,6.51
2018-11-23T23:15:14.844Z,6.54
2018-11-23T23:17:43.747Z,6.48
2018-11-23T23:20:14.783Z,6.48
2018-11-23T23:22:43.696Z,6.44
2018-11-23T23:25:13.561Z,6.43
2018-11-23T23:27:42.352Z,6.43
2018-11-23T23:30:12.319Z,6.29
2018-11-23T23:32:41.175Z,6.36
2018-11-23T23:35:11.221Z,6.29
2018-11-23T23:37:40.394Z,6.22
2018-11-23T23:40:12.077Z,6.14
2018-11-23T23:42:40.882Z,6.10
2018-11-23T23:45:12.431Z,5.97
2018-11-23T23:47:41.324Z,5.99
2018-11-23T23:50:11.506Z,5.94
2018-11-23T23:52:40.329Z,5.97
2018-11-23T23:55:09.925Z,6.05
2018-11-23T23:57:39.525Z,6.10
